Time;durP1;ratioP1;P1;durP2;ratioP2;P2;SDS_P1;SDS_P2;PMS_P1;PMS_P2;Temp;Humidity;BMP_temperature;BMP_pressure;BME280_temperature;BME280_humidity;BME280_pressure;Samples;Min_cycle;Max_cycle;Signal;HPM_P1;HPM_P2
2021/10/08 00:01:02;;;;;;;2.28;1.65;;;;;;;;;;5013952;28;20030;-44
2021/10/08 00:03:28;;;;;;;3.67;1.67;;;;;;;;;;5013453;28;20030;-44
2021/10/08 00:05:54;;;;;;;2.55;1.58;;;;;;;;;;5013516;28;20057;-46
2021/10/08 00:08:20;;;;;;;4.35;1.52;;;;;;;;;;5011472;28;20042;-49
2021/10/08 00:10:47;;;;;;;2.28;1.50;;;;;;;;;;5013972;28;20033;-43
2021/10/08 00:13:13;;;;;;;3.30;1.77;;;;;;;;;;5013425;28;20475;-44
2021/10/08 00:15:39;;;;;;;2.85;1.40;;;;;;;;;;5012421;28;20654;-43
2021/10/08 00:18:05;;;;;;;2.72;1.27;;;;;;;;;;5013294;28;20022;-44
2021/10/08 00:20:32;;;;;;;4.78;1.30;;;;;;;;;;5012718;28;20022;-43
2021/10/08 00:22:58;;;;;;;2.85;1.50;;;;;;;;;;5013579;28;20025;-43
2021/10/08 00:25:24;;;;;;;3.85;1.63;;;;;;;;;;5012279;28;20026;-47
2021/10/08 00:27:51;;;;;;;2.28;1.60;;;;;;;;;;4994436;28;20022;-44
2021/10/08 00:30:17;;;;;;;1.58;1.17;;;;;;;;;;5013269;28;20113;-43
2021/10/08 00:32:43;;;;;;;2.65;1.33;;;;;;;;;;5012322;28;20076;-43
2021/10/08 00:35:09;;;;;;;3.22;1.60;;;;;;;;;;5012913;28;20022;-44
2021/10/08 00:37:36;;;;;;;2.20;1.50;;;;;;;;;;5012005;28;20022;-44
2021/10/08 00:40:02;;;;;;;2.83;1.75;;;;;;;;;;5012758;28;20042;-44
2021/10/08 00:42:30;;;;;;;2.85;1.40;;;;;;;;;;5012254;28;20027;-44
2021/10/08 00:44:56;;;;;;;1.98;1.27;;;;;;;;;;5013056;28;20381;-44
2021/10/08 00:47:22;;;;;;;1.67;1.25;;;;;;;;;;5012152;28;20025;-49
2021/10/08 00:49:49;;;;;;;4.72;1.60;;;;;;;;;;5012679;28;20038;-44
2021/10/08 00:52:15;;;;;;;3.00;1.30;;;;;;;;;;5013161;28;20113;-44
2021/10/08 00:54:42;;;;;;;1.88;1.52;;;;;;;;;;5011736;28;20014;-43
2021/10/08 00:57:08;;;;;;;2.30;1.35;;;;;;;;;;5012518;28;20029;-43
2021/10/08 00:59:36;;;;;;;2.45;1.23;;;;;;;;;;5011559;28;20557;-44
2021/10/08 01:02:02;;;;;;;3.83;1.77;;;;;;;;;;5012258;28;20034;-43
2021/10/08 01:04:29;;;;;;;2.30;1.60;;;;;;;;;;5011519;28;20033;-44
2021/10/08 01:06:55;;;;;;;2.42;1.40;;;;;;;;;;5011905;28;20052;-44
2021/10/08 01:09:21;;;;;;;2.95;1.30;;;;;;;;;;5012093;28;20038;-48
2021/10/08 01:11:47;;;;;;;2.45;1.45;;;;;;;;;;5012651;28;20030;-43
2021/10/08 01:14:14;;;;;;;2.60;1.60;;;;;;;;;;5012124;28;20022;-44
2021/10/08 01:16:40;;;;;;;2.40;1.40;;;;;;;;;;5008307;28;20018;-44
2021/10/08 01:19:06;;;;;;;1.88;1.25;;;;;;;;;;5012199;28;20072;-44
2021/10/08 01:21:33;;;;;;;2.80;1.55;;;;;;;;;;5012257;28;20030;-44
2021/10/08 01:23:59;;;;;;;3.72;1.25;;;;;;;;;;5012150;28;20109;-47
2021/10/08 01:26:25;;;;;;;1.83;1.27;;;;;;;;;;5011804;28;20413;-46
2021/10/08 01:28:51;;;;;;;2.28;1.48;;;;;;;;;;5012176;28;20021;-43
2021/10/08 01:31:18;;;;;;;4.22;1.33;;;;;;;;;;5012590;28;20041;-44
2021/10/08 01:33:44;;;;;;;2.35;1.35;;;;;;;;;;5011019;28;20514;-44
2021/10/08 01:36:10;;;;;;;2.53;1.35;;;;;;;;;;5012210;28;20467;-44
2021/10/08 01:38:36;;;;;;;2.25;1.40;;;;;;;;;;5010990;28;20087;-46
2021/10/08 01:41:03;;;;;;;2.28;1.60;;;;;;;;;;5011954;28;20030;-44
2021/10/08 01:43:29;;;;;;;2.22;1.20;;;;;;;;;;5011232;28;20406;-44
2021/10/08 01:45:55;;;;;;;1.70;1.20;;;;;;;;;;5011438;28;20109;-44
2021/10/08 01:48:21;;;;;;;1.85;1.10;;;;;;;;;;5011828;28;20399;-51
2021/10/08 01:50:48;;;;;;;2.35;1.38;;;;;;;;;;5011843;28;20022;-43
2021/10/08 01:53:14;;;;;;;2.85;1.63;;;;;;;;;;5012291;28;20033;-44
2021/10/08 01:55:40;;;;;;;2.08;1.38;;;;;;;;;;5010467;28;20026;-44
2021/10/08 01:58:07;;;;;;;2.08;1.40;;;;;;;;;;5011781;28;20036;-44
2021/10/08 02:00:33;;;;;;;2.25;1.27;;;;;;;;;;5011042;28;20038;-44
2021/10/08 02:02:59;;;;;;;3.05;1.63;;;;;;;;;;5011732;28;20022;-44
2021/10/08 02:05:26;;;;;;;1.88;1.33;;;;;;;;;;5010209;28;20026;-44
2021/10/08 02:07:52;;;;;;;2.28;1.40;;;;;;;;;;5012148;28;20483;-44
2021/10/08 02:10:18;;;;;;;1.63;1.33;;;;;;;;;;5011004;28;20096;-44
2021/10/08 02:12:44;;;;;;;2.50;1.50;;;;;;;;;;5011268;28;20017;-43
2021/10/08 02:15:10;;;;;;;3.75;1.70;;;;;;;;;;5011256;28;20022;-46
2021/10/08 02:17:37;;;;;;;2.00;1.30;;;;;;;;;;5010270;28;20087;-44
2021/10/08 02:20:03;;;;;;;2.33;1.27;;;;;;;;;;5011145;28;20038;-44
2021/10/08 02:22:30;;;;;;;2.67;1.58;;;;;;;;;;5010923;28;20018;-44
2021/10/08 02:24:56;;;;;;;3.58;2.58;;;;;;;;;;5011384;28;20034;-44
2021/10/08 02:27:22;;;;;;;2.00;1.23;;;;;;;;;;5011816;28;20026;-48
2021/10/08 02:29:48;;;;;;;2.00;1.33;;;;;;;;;;5010776;28;20532;-43
2021/10/08 02:32:14;;;;;;;2.38;1.83;;;;;;;;;;5011370;28;20598;-44
2021/10/08 02:34:41;;;;;;;2.03;1.30;;;;;;;;;;5010385;28;20080;-44
2021/10/08 02:37:07;;;;;;;3.03;1.50;;;;;;;;;;5011370;28;20056;-43
2021/10/08 02:39:33;;;;;;;2.15;1.25;;;;;;;;;;5010218;28;20038;-44
2021/10/08 02:42:01;;;;;;;2.63;1.52;;;;;;;;;;5010960;28;20061;-44
2021/10/08 02:44:27;;;;;;;2.78;1.63;;;;;;;;;;5010114;28;20022;-48
2021/10/08 02:46:54;;;;;;;3.60;1.27;;;;;;;;;;5010849;28;20476;-44
2021/10/08 02:49:21;;;;;;;2.35;1.30;;;;;;;;;;5011432;28;20418;-44
2021/10/08 02:51:49;;;;;;;2.78;1.40;;;;;;;;;;5010682;28;20116;-44
2021/10/08 02:54:15;;;;;;;2.70;1.48;;;;;;;;;;5010998;28;20022;-44
2021/10/08 02:56:41;;;;;;;1.50;1.05;;;;;;;;;;5009556;28;20104;-44
2021/10/08 02:59:07;;;;;;;1.10;0.98;;;;;;;;;;5014551;28;20564;-43
2021/10/08 03:01:34;;;;;;;2.20;1.40;;;;;;;;;;5014424;28;20072;-44
2021/10/08 03:04:00;;;;;;;4.03;1.73;;;;;;;;;;5014523;28;20022;-47
2021/10/08 03:06:26;;;;;;;2.45;1.50;;;;;;;;;;5014253;28;20372;-50
2021/10/08 03:08:56;;;;;;;2.45;1.35;;;;;;;;;;5014828;28;20084;-47
2021/10/08 03:11:22;;;;;;;2.65;1.38;;;;;;;;;;4994058;28;20034;-44
2021/10/08 03:13:48;;;;;;;2.88;1.73;;;;;;;;;;5007436;28;20034;-44
2021/10/08 03:16:15;;;;;;;2.40;1.33;;;;;;;;;;5014670;28;20076;-46
2021/10/08 03:18:41;;;;;;;1.30;1.20;;;;;;;;;;5012100;28;20030;-49
2021/10/08 03:21:07;;;;;;;2.78;1.20;;;;;;;;;;5000896;28;20541;-49
2021/10/08 03:23:33;;;;;;;3.15;1.38;;;;;;;;;;5013238;28;20497;-44
2021/10/08 03:26:00;;;;;;;2.00;1.10;;;;;;;;;;5013832;28;20067;-44
2021/10/08 03:28:26;;;;;;;1.70;1.35;;;;;;;;;;5013897;28;20030;-51
2021/10/08 03:30:52;;;;;;;3.20;1.38;;;;;;;;;;5014082;28;20030;-45
2021/10/08 03:33:18;;;;;;;3.28;1.23;;;;;;;;;;5014078;28;20499;-44
2021/10/08 03:35:44;;;;;;;2.15;1.15;;;;;;;;;;5013195;28;20030;-45
2021/10/08 03:38:14;;;;;;;1.98;1.40;;;;;;;;;;5014523;28;20367;-44
2021/10/08 03:40:42;;;;;;;1.70;1.23;;;;;;;;;;5012882;28;20505;-44
2021/10/08 03:43:11;;;;;;;2.22;1.25;;;;;;;;;;5013865;28;20088;-44
2021/10/08 03:45:51;;;;;;;1.70;1.30;;;;;;;;;;5012670;28;20033;-47
2021/10/08 03:48:35;;;;;;;2.22;1.65;;;;;;;;;;5013696;28;20033;-46
2021/10/08 03:51:02;;;;;;;3.88;1.30;;;;;;;;;;5014019;28;20032;-45
2021/10/08 03:53:28;;;;;;;2.75;1.30;;;;;;;;;;5012986;28;20029;-51
2021/10/08 03:55:54;;;;;;;2.75;1.17;;;;;;;;;;5013702;28;20022;-44
2021/10/08 03:58:20;;;;;;;2.38;1.42;;;;;;;;;;5013789;28;20022;-44
2021/10/08 04:00:47;;;;;;;4.93;1.38;;;;;;;;;;5012348;28;20697;-44
2021/10/08 04:03:13;;;;;;;2.90;1.30;;;;;;;;;;5013064;28;20021;-44
2021/10/08 04:05:38;;;;;;;1.92;1.55;;;21.30;89.50;;;;;;5012702;28;20032;-44
2021/10/08 04:08:05;;;;;;;1.80;1.30;;;;;;;;;;5013555;28;20026;-44
2021/10/08 04:10:31;;;;;;;1.92;1.27;;;;;;;;;;5012647;28;20356;-44
2021/10/08 04:12:57;;;;;;;2.47;1.30;;;;;;;;;;5012841;28;20029;-44
2021/10/08 04:15:23;;;;;;;1.85;1.33;;;;;;;;;;5012752;28;20399;-44
2021/10/08 04:17:49;;;;;;;1.55;1.13;;;;;;;;;;5012519;28;20825;-44
2021/10/08 04:20:15;;;;;;;2.47;1.48;;;;;;;;;;4999263;28;20399;-44
2021/10/08 04:22:41;;;;;;;2.05;1.10;;;;;;;;;;5003877;28;20029;-44
2021/10/08 04:25:08;;;;;;;2.58;1.20;;;;;;;;;;5013448;28;20025;-44
2021/10/08 04:27:34;;;;;;;2.33;1.30;;;;;;;;;;5011617;28;20026;-43
2021/10/08 04:30:00;;;;;;;2.80;1.55;;;;;;;;;;5011632;28;20105;-44
2021/10/08 04:32:26;;;;;;;1.88;1.40;;;;;;;;;;5010173;28;20054;-47
2021/10/08 04:34:52;;;;;;;2.17;1.20;;;;;;;;;;5009540;28;20096;-44
2021/10/08 04:37:18;;;;;;;2.22;1.58;;;;;;;;;;5013218;28;20486;-44
2021/10/08 04:39:44;;;;;;;1.65;1.30;;;;;;;;;;5009151;28;20057;-44
2021/10/08 04:42:10;;;;;;;1.52;1.42;;;;;;;;;;5010484;28;20037;-44
2021/10/08 04:44:36;;;;;;;1.55;1.33;;;;;;;;;;5008352;28;20376;-43
2021/10/08 04:47:04;;;;;;;2.38;1.30;;;;;;;;;;5012637;28;20371;-44
2021/10/08 04:49:30;;;;;;;3.35;1.48;;;;;;;;;;5009397;28;20109;-49
2021/10/08 04:51:57;;;;;;;3.33;1.35;;;;;;;;;;5011650;28;20025;-44
2021/10/08 04:54:23;;;;;;;1.55;1.40;;;;;;;;;;5009755;28;20466;-44
2021/10/08 04:56:49;;;;;;;3.10;1.60;;;;;;;;;;5012121;28;20083;-45
2021/10/08 04:59:15;;;;;;;2.75;1.48;;;;;;;;;;5009504;28;20390;-43
2021/10/08 05:01:41;;;;;;;3.20;1.60;;;;;;;;;;5012053;28;20126;-45
2021/10/08 05:04:07;;;;;;;3.50;1.70;;;;;;;;;;5008280;28;20097;-44
2021/10/08 05:06:33;;;;;;;2.58;1.50;;;;;;;;;;5005594;28;20099;-44
2021/10/08 05:08:59;;;;;;;3.03;1.30;;;;;;;;;;5005100;28;20471;-45
2021/10/08 05:11:25;;;;;;;1.65;1.13;;;;;;;;;;5011449;28;20028;-44
2021/10/08 05:13:53;;;;;;;2.67;1.58;;;;;;;;;;5001734;28;20120;-47
2021/10/08 05:16:19;;;;;;;1.98;1.48;;;;;;;;;;5010314;28;20037;-44
2021/10/08 05:18:45;;;;;;;1.83;1.30;;;;;;;;;;5013644;28;20025;-44
2021/10/08 05:21:11;;;;;;;3.47;1.60;;;;;;;;;;5011962;28;20034;-44
2021/10/08 05:23:37;;;;;;;3.25;1.50;;;;;;;;;;5011166;28;20026;-45
2021/10/08 05:26:03;;;;;;;5.60;1.50;;;;;;;;;;5011707;28;20109;-45
2021/10/08 05:28:30;;;;;;;8.23;1.73;;;;;;;;;;5010169;28;20034;-48
2021/10/08 05:30:56;;;;;;;3.70;1.40;;;;;;;;;;5011882;28;20022;-48
2021/10/08 05:33:23;;;;;;;5.65;1.10;;;;;;;;;;5007740;28;20025;-46
2021/10/08 05:35:49;;;;;;;2.17;1.50;;;;;;;;;;5010676;28;20026;-45
2021/10/08 05:38:15;;;;;;;4.68;1.20;;;;;;;;;;5012227;28;20033;-46
2021/10/08 05:40:42;;;;;;;6.30;1.20;;;;;;;;;;5011917;28;20083;-45
2021/10/08 05:43:08;;;;;;;3.03;1.40;;;;;;;;;;5011804;28;20034;-44
2021/10/08 05:45:34;;;;;;;3.10;1.60;;;;;;;;;;5010727;28;20030;-45
2021/10/08 05:48:00;;;;;;;10.73;1.80;;;;;;;;;;5012585;28;20018;-45
2021/10/08 05:50:26;;;;;;;5.68;1.70;;;;;;;;;;5011071;28;20088;-46
2021/10/08 05:52:52;;;;;;;5.70;1.77;;;;;;;;;;5012042;28;20482;-44
2021/10/08 05:55:21;;;;;;;9.07;1.80;;;;;;;;;;5012180;28;20064;-43
2021/10/08 05:57:48;;;;;;;6.45;1.70;;;;;;;;;;5009214;28;20498;-44
2021/10/08 06:00:14;;;;;;;5.82;1.77;;;;;;;;;;5011073;28;20088;-44
2021/10/08 06:02:40;;;;;;;5.30;2.08;;;;;;;;;;5010415;28;20030;-44
2021/10/08 06:05:06;;;;;;;8.40;1.92;;;;;;;;;;5005159;28;20033;-46
2021/10/08 06:07:32;;;;;;;6.18;1.70;;;;;;;;;;5006335;28;20050;-44
2021/10/08 06:09:59;;;;;;;10.40;1.80;;;;;;;;;;5012723;28;20034;-44
2021/10/08 06:12:25;;;;;;;9.57;1.95;;;;;;;;;;5011098;28;20030;-44
2021/10/08 06:14:51;;;;;;;8.95;1.85;;;;;;;;;;5010593;28;20641;-44
2021/10/08 06:17:17;;;;;;;7.60;1.98;;;;;;;;;;5011526;28;20022;-43
2021/10/08 06:19:43;;;;;;;6.30;1.70;;;;;;;;;;5001589;28;20041;-43
2021/10/08 06:22:10;;;;;;;4.95;1.33;;;;;;;;;;4993867;28;20077;-44
2021/10/08 06:24:36;;;;;;;6.10;1.75;;;;;;;;;;5010901;28;20100;-44
2021/10/08 06:27:02;;;;;;;11.50;1.95;;;;;;;;;;5011941;28;20025;-43
2021/10/08 06:29:28;;;;;;;6.80;1.83;;;;;;;;;;5011212;28;20049;-44
2021/10/08 06:31:54;;;;;;;6.28;1.67;;;;;;;;;;5013520;28;20021;-43
2021/10/08 06:34:21;;;;;;;3.00;1.80;;;;;;;;;;5015141;28;20026;-44
2021/10/08 06:36:47;;;;;;;3.58;1.80;;;;;;;;;;5014474;28;20026;-43
2021/10/08 06:39:13;;;;;;;5.78;1.40;;;;;;;;;;5014524;28;20100;-43
2021/10/08 06:41:39;;;;;;;4.85;1.52;;;;;;;;;;5013670;28;20381;-50
2021/10/08 06:44:05;;;;;;;3.80;1.48;;;;;;;;;;5014102;28;20040;-44
2021/10/08 06:46:31;;;;;;;3.55;1.45;;;;;;;;;;5014946;28;20366;-49
2021/10/08 06:48:57;;;;;;;5.18;1.75;;;;;;;;;;5014832;28;20518;-44
2021/10/08 06:51:24;;;;;;;4.55;1.80;;;;;;;;;;5014822;28;20033;-44
2021/10/08 06:53:50;;;;;;;4.93;1.60;;;;;;;;;;5008759;28;20049;-45
2021/10/08 06:56:16;;;;;;;4.22;1.58;;;;;;;;;;5015645;28;20153;-44
2021/10/08 06:58:43;;;;;;;6.32;1.38;;;;;;;;;;5015737;28;20459;-44
2021/10/08 07:01:09;;;;;;;3.10;1.33;;;;;;;;;;5014774;28;20030;-44
2021/10/08 07:03:35;;;;;;;2.88;1.23;;;;;;;;;;5013570;28;20795;-46
2021/10/08 07:06:01;;;;;;;3.40;1.65;;;;;;;;;;5009854;28;20029;-45
2021/10/08 07:08:27;;;;;;;4.30;1.27;;;;;;;;;;5014732;28;20025;-46
2021/10/08 07:10:53;;;;;;;4.28;1.33;;;;;;;;;;5013922;28;20030;-44
2021/10/08 07:13:19;;;;;;;3.55;1.30;;;;;;;;;;5014881;28;20080;-44
2021/10/08 07:15:45;;;;;;;4.35;1.38;;;;;;;;;;5011492;28;20030;-43
2021/10/08 07:18:15;;;;;;;5.13;1.30;;;;;;;;;;5014567;28;20030;-46
2021/10/08 07:20:41;;;;;;;4.15;1.48;;;;;;;;;;5013306;28;20053;-44
2021/10/08 07:23:07;;;;;;;3.78;1.23;;;;;;;;;;5013908;28;20105;-43
2021/10/08 07:25:33;;;;;;;1.63;1.15;;;;;;;;;;5012997;28;20524;-45
2021/10/08 07:27:59;;;;;;;3.08;1.42;;;;;;;;;;5014003;28;20080;-44
2021/10/08 07:30:25;;;;;;;4.53;2.78;;;;;;;;;;5014453;28;20033;-44
2021/10/08 07:32:52;;;;;;;2.78;1.40;;;;;;;;;;5012948;28;20810;-44
2021/10/08 07:35:18;;;;;;;2.97;1.50;;;;;;;;;;5013808;28;20030;-44
2021/10/08 07:37:44;;;;;;;3.88;1.20;;;;;;;;;;5013513;28;20045;-43
2021/10/08 07:40:12;;;;;;;2.92;1.40;;;;;;;;;;5014264;28;20116;-44
2021/10/08 07:42:38;;;;;;;2.58;1.15;;;;;;;;;;5006372;28;20383;-44
2021/10/08 07:45:06;;;;;;;1.90;1.70;;;;;;;;;;5013116;28;20034;-44
2021/10/08 07:47:32;;;;;;;2.72;1.23;;;;;;;;;;5013435;28;20032;-44
2021/10/08 07:49:58;;;;;;;5.32;1.33;;;;;;;;;;5013601;28;20045;-44
2021/10/08 07:52:24;;;;;;;4.85;1.52;;;;;;;;;;5013574;28;20021;-44
2021/10/08 07:54:50;;;;;;;3.05;1.10;;;;;;;;;;5012263;28;20034;-46
2021/10/08 07:57:17;;;;;;;3.85;1.30;;;;;;;;;;5013167;28;20419;-44
2021/10/08 07:59:43;;;;;;;5.97;1.65;;;;;;;;;;5013038;28;20134;-44
2021/10/08 08:02:09;;;;;;;5.65;1.30;;;;;;;;;;5013412;28;20029;-44
2021/10/08 08:04:37;;;;;;;3.28;1.38;;;;;;;;;;5012914;28;20033;-50
2021/10/08 08:07:03;;;;;;;2.65;1.33;;;;;;;;;;5013237;28;20410;-44
2021/10/08 08:09:30;;;;;;;3.70;1.30;;;;;;;;;;5012078;28;20034;-44
2021/10/08 08:11:56;;;;;;;2.85;1.20;;;;;;;;;;5002915;28;20038;-44
2021/10/08 08:14:22;;;;;;;2.75;1.40;;;;;;;;;;5012973;28;20026;-44
2021/10/08 08:16:48;;;;;;;7.97;1.67;;;;;;;;;;5012945;28;20076;-44
2021/10/08 08:19:14;;;;;;;3.80;1.80;;;;;;;;;;5013191;28;20080;-44
2021/10/08 08:21:41;;;;;;;2.72;1.30;;;;;;;;;;5012756;28;20026;-44
2021/10/08 08:24:08;;;;;;;2.70;1.13;;;;;;;;;;5013329;28;20041;-44
2021/10/08 08:26:35;;;;;;;3.20;1.40;;;;;;;;;;5013560;28;20029;-44
2021/10/08 08:29:01;;;;;;;2.00;0.95;;;;;;;;;;5013110;28;20076;-44
2021/10/08 08:31:27;;;;;;;2.63;1.70;;;;;;;;;;5013240;28;20641;-44
2021/10/08 08:33:53;;;;;;;2.13;1.35;;;;;;;;;;5012457;28;20042;-44
2021/10/08 08:36:19;;;;;;;3.83;1.33;;;;;;;;;;5013229;28;20084;-44
2021/10/08 08:38:46;;;;;;;3.72;1.63;;;;;;;;;;5012678;28;20026;-44
2021/10/08 08:41:12;;;;;;;2.20;1.35;;;;;;;;;;5011907;28;20034;-44
2021/10/08 08:43:38;;;;;;;4.18;1.60;;;;;;;;;;5012406;28;20026;-47
2021/10/08 08:46:05;;;;;;;2.20;1.40;;;;;;;;;;5012989;28;20022;-45
2021/10/08 08:48:31;;;;;;;3.35;1.73;;;;;;;;;;5013235;28;20033;-44
2021/10/08 08:50:57;;;;;;;4.57;1.42;;;;;;;;;;5011909;28;20252;-44
2021/10/08 08:53:23;;;;;;;2.80;1.90;;;;;;;;;;5012998;28;20033;-44
2021/10/08 08:55:51;;;;;;;3.53;1.40;;;;;;;;;;5003042;28;20072;-44
2021/10/08 08:58:18;;;;;;;3.40;1.52;;;;;;;;;;5005173;28;20073;-44
2021/10/08 09:00:46;;;;;;;3.33;1.27;;;;;;;;;;5010724;28;20030;-47
2021/10/08 09:03:16;;;;;;;1.90;1.30;;;;;;;;;;5012675;28;20025;-45
2021/10/08 09:05:46;;;;;;;1.70;1.13;;;;;;;;;;5011940;28;20041;-45
2021/10/08 09:08:13;;;;;;;3.13;1.77;;;;;;;;;;5012455;28;20115;-45
2021/10/08 09:10:41;;;;;;;2.22;1.42;;;;;;;;;;5011188;28;20092;-53
2021/10/08 09:13:08;;;;;;;3.85;1.50;;;;;;;;;;5012443;28;20037;-45
2021/10/08 09:15:45;;;;;;;3.70;1.50;;;;;;;;;;5012424;28;20034;-47
2021/10/08 09:18:12;;;;;;;4.90;1.63;;;;;;;;;;5012750;28;20026;-45
2021/10/08 09:20:39;;;;;;;4.45;1.60;;;;;;;;;;5012004;28;20042;-49
2021/10/08 09:23:06;;;;;;;1.77;1.25;;;;;;;;;;5011741;28;20044;-45
2021/10/08 09:25:34;;;;;;;3.33;1.38;;;;;;;;;;5012662;28;20080;-45
2021/10/08 09:28:01;;;;;;;2.65;1.33;;;;;;;;;;5010992;28;20025;-45
2021/10/08 09:30:34;;;;;;;2.58;1.13;;;;;;;;;;5012452;28;20109;-46
2021/10/08 09:33:02;;;;;;;3.08;1.45;;;;;;;;;;5010983;28;20637;-45
2021/10/08 09:35:28;;;;;;;3.28;1.60;;;;;;;;;;5011174;28;20087;-45
2021/10/08 09:38:00;;;;;;;2.75;1.63;;;;;;;;;;5011304;28;20030;-45
2021/10/08 09:40:32;;;;;;;5.20;2.03;;;;;;;;;;5011740;28;20424;-45
2021/10/08 09:43:03;;;;;;;2.40;1.50;;;;;;;;;;5010749;28;20450;-46
2021/10/08 09:45:33;;;;;;;3.80;1.80;;;;;;;;;;5003460;28;20060;-45
2021/10/08 09:48:00;;;;;;;2.92;1.67;;;;;;;;;;5011347;28;20025;-45
2021/10/08 09:50:26;;;;;;;2.58;1.50;;;;;;;;;;5011909;28;20036;-45
2021/10/08 09:53:07;;;;;;;2.33;1.60;;;;;;;;;;5011204;28;20033;-45
2021/10/08 09:55:33;;;;;;;2.47;1.60;;;;;;;;;;5012315;28;20053;-45
2021/10/08 09:57:59;;;;;;;3.47;1.60;;;;;;;;;;5010707;28;20622;-45
2021/10/08 10:00:36;;;;;;;2.67;1.67;;;;;;;;;;5011742;28;20544;-46
2021/10/08 10:03:06;;;;;;;5.78;2.00;;;;;;;;;;5010269;28;20034;-44
2021/10/08 10:05:33;;;;;;;1.65;1.55;;;;;;;;;;5011253;28;20032;-44
2021/10/08 10:07:59;;;;;;;2.47;1.45;;;;;;;;;;5011092;28;20050;-44
2021/10/08 10:10:25;;;;;;;3.80;1.50;;;;;;;;;;5011411;28;20533;-44
2021/10/08 10:12:52;;;;;;;2.15;1.52;;;;;;;;;;5010233;28;20064;-45
2021/10/08 10:15:18;;;;;;;2.13;1.30;;;;;;;;;;5005778;28;20399;-45
2021/10/08 10:17:45;;;;;;;1.30;1.20;;;;;;;;;;5013652;28;20026;-45
2021/10/08 10:20:11;;;;;;;3.95;1.52;;;;;;;;;;5011505;28;20088;-44
2021/10/08 10:22:38;;;;;;;5.00;1.67;;;;;;;;;;5011653;28;20026;-45
2021/10/08 10:25:05;;;;;;;3.95;2.00;;;;;;;;;;5010998;28;20235;-44
2021/10/08 10:27:31;;;;;;;3.88;1.85;;;;;;;;;;5011952;28;20030;-46
2021/10/08 10:29:58;;;;;;;3.03;1.80;;;;;;;;;;5010284;28;20061;-52
2021/10/08 10:32:24;;;;;;;4.60;2.22;;;;;;;;;;5009369;28;20022;-44
2021/10/08 10:34:51;;;;;;;3.55;3.08;;;;;;;;;;5010986;28;20096;-45
2021/10/08 10:37:41;;;;;;;3.30;2.58;;;;;;;;;;5010549;28;20036;-44
2021/10/08 10:40:17;;;;;;;3.42;1.77;;;;;;;;;;5010621;28;20061;-46
2021/10/08 10:42:43;;;;;;;3.40;2.00;;;;;;;;;;5011566;28;20033;-52
2021/10/08 10:45:25;;;;;;;3.15;2.30;;;;;;;;;;5011044;28;20140;-45
2021/10/08 10:47:51;;;;;;;;;;;;;;;;;;5011618;28;20097;-45
2021/10/08 10:50:20;;;;;;;;;;;;;;;;;;5011966;28;20000;-45
2021/10/08 10:52:46;;;;;;;;;;;;;;;;;;5011340;28;19905;-49
2021/10/08 10:55:12;;;;;;;;;;;;;;;;;;5011982;28;19905;-45
2021/10/08 10:57:38;;;;;;;;;;;;;;;;;;5011547;28;19924;-44
2021/10/08 11:00:04;;;;;;;;;;;;;;;;;;5010848;28;20468;-45
2021/10/08 11:02:30;;;;;;;;;;;;;;;;;;5010846;28;20321;-45
2021/10/08 11:04:56;;;;;;;;;;;;;;;;;;5011035;28;19932;-45
2021/10/08 11:07:23;;;;;;;;;;;;;;;;;;5010988;28;19999;-45
2021/10/08 11:09:49;;;;;;;;;;;;;;;;;;5011289;28;20350;-45
2021/10/08 11:12:15;;;;;;;;;;;;;;;;;;5011839;28;19916;-45
2021/10/08 11:14:41;;;;;;;;;;;;;;;;;;5009471;28;19909;-45
2021/10/08 11:17:07;;;;;;;;;;;;;;;;;;5010274;28;20096;-45
2021/10/08 11:19:33;;;;;;;;;;;;;;;;;;5014753;28;20359;-45
2021/10/08 11:21:59;;;;;;;;;;;;;;;;;;5014576;28;19909;-45
2021/10/08 11:24:25;;;;;;;;;;;;;;;;;;5015000;28;19917;-45
2021/10/08 11:26:51;;;;;;;;;;;;;;;;;;5014455;28;19964;-45
2021/10/08 11:29:17;;;;;;;;;;;;;;;;;;5015146;28;19979;-45
2021/10/08 11:31:43;;;;;;;;;;;;;;;;;;5015000;28;19912;-45
2021/10/08 11:34:09;;;;;;;;;;;;;;;;;;5014650;28;20389;-45
2021/10/08 11:36:35;;;;;;;;;;;;;;;;;;5014808;28;20274;-46
2021/10/08 11:39:01;;;;;;;;;;;;;;;;;;5014097;28;19979;-45
2021/10/08 11:41:27;;;;;;;;;;;;;;;;;;5014760;28;20077;-45
2021/10/08 11:43:56;;;;;;;;;;;;;;;;;;5013513;28;20317;-45
2021/10/08 11:46:36;;;;;;;;;;;;;;;;;;5015102;28;19975;-45
2021/10/08 11:49:23;;;;;;;;;;;;;;;;;;5014036;28;19909;-45
2021/10/08 11:51:49;;;;;;;;;;;;;;;;;;5013990;28;20325;-48
2021/10/08 11:54:15;;;;;;;;;;;;;;;;;;5014428;28;19960;-45
2021/10/08 11:56:41;;;;;;;;;;;;;;;;;;5015056;28;19909;-45
2021/10/08 11:59:09;;;;;;;;;;;;;;;;;;5013640;28;19912;-45
2021/10/08 12:01:35;;;;;;;;;;;;;;;;;;5013978;28;20381;-46
2021/10/08 12:04:01;;;;;;;;;;;;;;;;;;5000304;28;19910;-45
2021/10/08 12:06:28;;;;;;;;;;;;;;;;;;5014047;28;19925;-46
2021/10/08 12:08:57;;;;;;;;;;;;;;;;;;5013649;28;20355;-45
2021/10/08 12:11:23;;;;;;;;;;;;;;;;;;5013706;28;20367;-48
2021/10/08 12:13:51;;;;;;;;;;;;;;;;;;5012793;28;19905;-47
2021/10/08 12:16:17;;;;;;;;;;;;;;;;;;5013069;28;20309;-45
2021/10/08 12:18:43;;;;;;;;;;;;;;;;;;5014392;28;19992;-47
2021/10/08 12:21:09;;;;;;;;;;;;;;;;;;5013368;28;19913;-46
2021/10/08 12:23:35;;;;;;;;;;;;;;;;;;5013495;28;20337;-45
2021/10/08 12:26:01;;;;;;;;;;;;;;;;;;5013021;28;20366;-48
2021/10/08 12:28:27;;;;;;;;;;;;;;;;;;5014061;28;19909;-45
2021/10/08 12:30:54;;;;;;;;;;;;;;;;;;5013443;28;19905;-47
2021/10/08 12:33:21;;;;;;;;;;;;;;;;;;5013747;28;19952;-45
2021/10/08 12:35:47;;;;;;;;;;;;;;;;;;5013573;28;19960;-49
2021/10/08 12:38:13;;;;;;;;;;;;;;;;;;5013178;28;19914;-45
2021/10/08 12:40:39;;;;;;;;;;;;;;;;;;5013832;28;20342;-45
2021/10/08 12:43:05;;;;;;;;;;;;;;;;;;5012571;28;19909;-45
2021/10/08 12:45:43;;;;;;;;;;;;;;;;;;5013138;28;19917;-45
2021/10/08 12:48:09;;;;;;;;;;;;;;;;;;5013398;28;19905;-50
2021/10/08 12:50:38;;;;;;;;;;;;;;;;;;5013945;28;19905;-45
2021/10/08 12:53:04;;;;;;;;;;;;;;;;;;5012683;28;19909;-45
2021/10/08 12:55:31;;;;;;;;;;;;;;;;;;5013271;28;19913;-45
2021/10/08 12:57:57;;;;;;;;;;;;;;;;;;5012673;28;20358;-47
2021/10/08 13:00:23;;;;;;;;;;;;;;;;;;5013574;28;19909;-44
2021/10/08 13:02:49;;;;;;;;;;;;;;;;;;5012828;28;19909;-52
2021/10/08 13:05:15;;;;;;;;;;;;;;;;;;5013376;28;19909;-47
2021/10/08 13:07:42;;;;;;;;;;;;;;;;;;5013389;28;19922;-48
2021/10/08 13:10:08;;;;;;;;;;;;;;;;;;5012202;28;19921;-45
2021/10/08 13:12:35;;;;;;;;;;;;;;;;;;5013278;28;19905;-46
2021/10/08 13:15:01;;;;;;;;;;;;;;;;;;5011968;28;19964;-46
2021/10/08 13:17:27;;;;;;;;;;;;;;;;;;5013333;28;19961;-44
2021/10/08 13:19:53;;;;;;;;;;;;;;;;;;5001343;28;19910;-48
2021/10/08 13:22:24;;;;;;;;;;;;;;;;;;5002117;28;19921;-45
2021/10/08 13:24:50;;;;;;;;;;;;;;;;;;5012086;28;20592;-50
2021/10/08 13:27:16;;;;;;;;;;;;;;;;;;5012314;28;19917;-46
2021/10/08 13:29:42;;;;;;;;;;;;;;;;;;5012745;28;19913;-45
2021/10/08 13:32:09;;;;;;;;;;;;;;;;;;5011881;28;20540;-44
2021/10/08 13:34:35;;;;;;;;;;;;;;;;;;5013100;28;19952;-45
2021/10/08 13:37:01;;;;;;;;;;;;;;;;;;5012383;28;19909;-44
2021/10/08 13:39:26;;;;;;;;;;;22.10;91.60;;;;;;5012650;28;19913;-43
2021/10/08 13:41:52;;;;;;;;;;;22.10;79.50;;;;;;5011160;28;19917;-47
2021/10/08 13:44:17;;;;;;;;;;;22.30;78.00;;;;;;5012227;28;19972;-44
2021/10/08 13:46:43;;;;;;;;;;;22.40;77.10;;;;;;5012560;28;19917;-44
2021/10/08 13:49:08;;;;;;;;;;;22.30;84.70;;;;;;5011564;28;19905;-45
2021/10/08 13:51:34;;;;;;;;;;;22.20;70.60;;;;;;5012343;28;20314;-45
2021/10/08 13:53:59;;;;;;;;;;;22.30;78.10;;;;;;5011769;28;19910;-43
2021/10/08 13:56:25;;;;;;;;;;;22.20;78.40;;;;;;5012028;28;19992;-43
2021/10/08 13:58:50;;;;;;;;;;;22.00;83.30;;;;;;5012188;28;19905;-47
2021/10/08 14:01:16;;;;;;;;;;;21.90;83.40;;;;;;5011717;28;20389;-43
2021/10/08 14:03:55;;;;;;;;;;;21.80;86.20;;;;;;5012641;28;19910;-43
2021/10/08 14:10:16;;;;;;;;;;;21.80;87.00;;;;;;5011710;28;19960;-45
2021/10/08 14:11:53;;;;;;;;;;;21.70;88.60;;;;;;5002912;28;19948;-44
2021/10/08 14:14:19;;;;;;;;;;;21.70;86.70;;;;;;5011334;28;20361;-43
2021/10/08 14:16:44;;;;;;;;;;;21.70;86.10;;;;;;5011956;28;20004;-43
2021/10/08 14:19:10;;;;;;;;;;;21.80;85.30;;;;;;5006708;28;19902;-43
2021/10/08 14:21:35;;;;;;;;;;;21.70;86.30;;;;;;5011337;28;19917;-42
2021/10/08 14:24:01;;;;;;;;;;;21.70;86.20;;;;;;5011773;28;20321;-43
2021/10/08 14:26:26;;;;;;;;;;;21.80;83.90;;;;;;5012237;28;19909;-42
2021/10/08 14:28:52;;;;;;;;;;;21.80;82.50;;;;;;5010469;28;19909;-50
2021/10/08 14:31:18;;;;;;;;;;;21.70;79.80;;;;;;5011515;28;19949;-42
2021/10/08 14:33:43;;;;;;;;;;;21.90;78.60;;;;;;5012772;28;19906;-43
2021/10/08 14:36:09;;;;;;;;;;;21.80;73.80;;;;;;5011631;28;19916;-43
2021/10/08 14:38:34;;;;;;;;;;;21.80;67.30;;;;;;5011909;28;19917;-43
2021/10/08 14:41:00;;;;;;;;;;;21.70;64.00;;;;;;5011188;28;19936;-47
2021/10/08 14:43:25;;;;;;;;;;;21.80;64.30;;;;;;5011998;28;19920;-43
2021/10/08 14:45:51;;;;;;;;;;;21.70;64.60;;;;;;5012040;28;19968;-48
2021/10/08 14:48:16;;;;;;;;;;;21.70;64.40;;;;;;5011983;28;20121;-42
2021/10/08 14:50:42;;;;;;;;;;;21.60;64.60;;;;;;5011953;28;19905;-42
2021/10/08 14:53:09;;;;;;;;;;;21.70;64.40;;;;;;5013983;28;19915;-43
2021/10/08 14:57:59;;;;;;;;;;;21.60;64.70;;;;;;5014647;28;19909;-43
2021/10/08 15:00:26;;;;;;;;;;;21.60;64.60;;;;;;5015140;28;20666;-42
2021/10/08 15:02:52;;;;;;;;;;;21.60;64.00;;;;;;5014777;28;19917;-49